Airports Norway Røros Airport

Røros Airport (ENRO / RRS)

Facts about Røros Airport

Name Røros Airport
City Roros
Country Norway
ICAO code ENRO
IATA code RRS
Elevation 626.0592 meters (2054 feet)

Weather

METAR

Metar data retrieved Saturday, 20 July 2024 at 00:25 UTC (23 minutes ago)

ENRO 200020Z AUTO 00000KT 9999 NCD 06/05 Q1018

Live traffic

Navigraph Charts (account required)